Time;durP1;ratioP1;P1;durP2;ratioP2;P2;SDS_P1;SDS_P2;PMS_P1;PMS_P2;Temp;Humidity;BMP_temperature;BMP_pressure;BME280_temperature;BME280_humidity;BME280_pressure;Samples;Min_cycle;Max_cycle;Signal;HPM_P1;HPM_P2
2024/01/27 00:01:34;;;;;;;;;;;8.70;99.90;;;;;;5114691;28;19998;-77
2024/01/27 00:04:00;;;;;;;;;;;8.70;99.90;;;;;;5114483;28;19907;-77
2024/01/27 00:06:25;;;;;;;;;;;8.80;99.90;;;;;;5119204;28;19976;-77
2024/01/27 00:08:51;;;;;;;;;;;8.70;99.90;;;;;;5119009;28;19911;-77
2024/01/27 00:11:16;;;;;;;;;;;8.80;99.90;;;;;;5119409;27;19911;-77
2024/01/27 00:13:42;;;;;;;;;;;8.70;99.90;;;;;;5119003;28;19903;-77
2024/01/27 00:16:09;;;;;;;;;;;8.70;99.90;;;;;;5118044;28;19904;-76
2024/01/27 00:18:37;;;;;;;;;;;8.70;99.90;;;;;;5118963;28;19960;-77
2024/01/27 00:21:04;;;;;;;;;;;8.70;99.90;;;;;;5118994;28;19914;-77
2024/01/27 00:23:29;;;;;;;;;;;8.70;99.90;;;;;;5118716;27;19904;-76
2024/01/27 00:25:55;;;;;;;;;;;8.70;99.90;;;;;;5117745;28;19904;-77
2024/01/27 00:28:20;;;;;;;;;;;8.70;99.90;;;;;;5118720;27;19908;-76
2024/01/27 00:30:46;;;;;;;;;;;8.70;99.90;;;;;;5119157;28;19908;-77
2024/01/27 00:33:12;;;;;;;;;;;8.60;99.90;;;;;;5118290;28;19912;-76
2024/01/27 00:35:37;;;;;;;;;;;8.60;99.90;;;;;;5119018;28;19911;-76
2024/01/27 00:38:03;;;;;;;;;;;8.60;99.90;;;;;;5118436;28;19994;-76
2024/01/27 00:40:28;;;;;;;;;;;8.70;99.90;;;;;;5117440;28;19954;-76
2024/01/27 00:42:54;;;;;;;;;;;8.60;99.90;;;;;;5117175;28;19919;-76
2024/01/27 00:45:22;;;;;;;;;;;8.70;99.90;;;;;;5117455;28;19904;-77
2024/01/27 00:47:49;;;;;;;;;;;8.60;99.90;;;;;;5117065;28;20270;-76
2024/01/27 00:50:14;;;;;;;;;;;8.50;99.90;;;;;;5117597;28;19910;-77
2024/01/27 00:52:40;;;;;;;;;;;8.50;99.90;;;;;;5116736;28;19903;-76
2024/01/27 00:55:05;;;;;;;;;;;8.50;99.90;;;;;;5118455;28;19998;-76
2024/01/27 00:57:31;;;;;;;;;;;8.50;99.90;;;;;;5116481;28;20006;-76
2024/01/27 00:59:56;;;;;;;;;;;8.50;99.90;;;;;;5118562;28;19915;-76
2024/01/27 01:02:22;;;;;;;;;;;8.50;99.90;;;;;;5116645;28;19923;-76
2024/01/27 01:04:48;;;;;;;;;;;8.50;99.90;;;;;;5118075;28;19994;-76
2024/01/27 01:07:13;;;;;;;;;;;8.40;99.90;;;;;;5117661;28;19966;-76
2024/01/27 01:09:39;;;;;;;;;;;8.40;99.90;;;;;;5118275;28;19904;-76
2024/01/27 01:12:04;;;;;;;;;;;8.40;99.90;;;;;;5117914;28;19904;-76
2024/01/27 01:14:30;;;;;;;;;;;8.40;99.90;;;;;;5117077;28;19915;-76
2024/01/27 01:16:55;;;;;;;;;;;8.30;99.90;;;;;;5115851;28;19935;-75
2024/01/27 01:19:21;;;;;;;;;;;8.30;99.90;;;;;;5118106;28;19915;-76
2024/01/27 01:21:46;;;;;;;;;;;8.30;99.90;;;;;;5117768;28;20735;-76
2024/01/27 01:24:12;;;;;;;;;;;8.30;99.90;;;;;;5116680;28;19965;-76
2024/01/27 01:26:37;;;;;;;;;;;8.20;99.90;;;;;;5117142;28;20690;-76
2024/01/27 01:29:03;;;;;;;;;;;8.20;99.90;;;;;;5116608;28;19908;-76
2024/01/27 01:31:28;;;;;;;;;;;8.20;99.90;;;;;;5113595;28;19904;-77
2024/01/27 01:33:54;;;;;;;;;;;8.20;99.90;;;;;;5117968;28;19904;-77
2024/01/27 01:36:20;;;;;;;;;;;8.20;99.90;;;;;;5117472;27;20371;-76
2024/01/27 01:38:45;;;;;;;;;;;8.20;99.90;;;;;;5117080;27;19910;-77
2024/01/27 01:41:11;;;;;;;;;;;8.20;99.90;;;;;;5117064;28;19926;-77
2024/01/27 01:43:37;;;;;;;;;;;8.20;99.90;;;;;;5117696;28;19904;-77
2024/01/27 01:46:02;;;;;;;;;;;8.20;99.90;;;;;;5116981;27;19918;-77
2024/01/27 01:48:29;;;;;;;;;;;8.10;99.90;;;;;;5117380;28;19914;-77
2024/01/27 01:50:54;;;;;;;;;;;8.10;99.90;;;;;;5117108;28;20014;-76
2024/01/27 01:53:21;;;;;;;;;;;8.10;99.90;;;;;;5117004;28;19903;-76
2024/01/27 01:55:46;;;;;;;;;;;7.90;99.90;;;;;;5116781;28;19920;-77
2024/01/27 01:58:12;;;;;;;;;;;7.90;99.90;;;;;;5117095;28;19904;-77
2024/01/27 02:00:37;;;;;;;;;;;7.90;99.90;;;;;;5116965;28;19992;-77
2024/01/27 02:03:03;;;;;;;;;;;7.90;99.90;;;;;;5117160;28;19953;-76
2024/01/27 02:05:28;;;;;;;;;;;7.90;99.90;;;;;;5115646;28;19915;-76
2024/01/27 02:07:56;;;;;;;;;;;7.90;99.90;;;;;;5116656;28;20417;-76
2024/01/27 02:10:21;;;;;;;;;;;7.90;99.90;;;;;;5117222;28;20017;-76
2024/01/27 02:12:47;;;;;;;;;;;7.90;99.90;;;;;;5116772;28;19903;-76
2024/01/27 02:15:13;;;;;;;;;;;7.90;99.90;;;;;;5114771;28;20283;-77
2024/01/27 02:17:39;;;;;;;;;;;7.90;99.90;;;;;;5109832;28;19908;-77
2024/01/27 02:20:06;;;;;;;;;;;7.90;99.90;;;;;;5116614;28;19914;-76
2024/01/27 02:22:32;;;;;;;;;;;7.90;99.90;;;;;;5114799;28;19909;-77
2024/01/27 02:24:58;;;;;;;;;;;7.90;99.90;;;;;;5115441;28;19904;-77
2024/01/27 02:27:24;;;;;;;;;;;7.90;99.90;;;;;;5114945;28;20406;-77
2024/01/27 02:29:49;;;;;;;;;;;7.90;99.90;;;;;;5108759;28;19907;-77
2024/01/27 02:32:14;;;;;;;;;;;7.90;99.90;;;;;;5116184;28;19907;-76
2024/01/27 02:34:40;;;;;;;;;;;7.80;99.90;;;;;;5115327;28;19916;-77
2024/01/27 02:37:06;;;;;;;;;;;7.80;99.90;;;;;;5116024;28;19904;-77
2024/01/27 02:39:31;;;;;;;;;;;7.70;99.90;;;;;;5106774;28;20006;-76
2024/01/27 02:41:56;;;;;;;;;;;7.80;99.90;;;;;;5114976;28;19907;-77
2024/01/27 02:44:22;;;;;;;;;;;7.70;99.90;;;;;;5116474;28;19969;-76
2024/01/27 02:46:48;;;;;;;;;;;7.70;99.90;;;;;;5116789;28;19972;-76
2024/01/27 02:49:13;;;;;;;;;;;7.80;99.90;;;;;;5116744;28;19903;-76
2024/01/27 02:51:39;;;;;;;;;;;7.80;99.90;;;;;;5103078;28;20580;-76
2024/01/27 02:54:04;;;;;;;;;;;7.80;99.90;;;;;;5114755;28;20666;-76
2024/01/27 02:56:30;;;;;;;;;;;7.80;99.90;;;;;;5107157;28;19944;-77
2024/01/27 02:58:55;;;;;;;;;;;7.80;99.90;;;;;;5115459;28;19915;-76
2024/01/27 03:01:21;;;;;;;;;;;7.80;99.90;;;;;;5116447;28;19955;-77
2024/01/27 03:03:46;;;;;;;;;;;7.70;99.90;;;;;;5116322;28;19908;-76
2024/01/27 03:06:12;;;;;;;;;;;7.70;99.90;;;;;;5114972;28;19953;-76
2024/01/27 03:08:37;;;;;;;;;;;7.70;99.90;;;;;;5115756;28;19904;-76
2024/01/27 03:11:03;;;;;;;;;;;7.70;99.90;;;;;;5116078;28;19918;-76
2024/01/27 03:13:28;;;;;;;;;;;7.70;99.90;;;;;;5115970;28;19912;-77
2024/01/27 03:15:55;;;;;;;;;;;7.70;99.90;;;;;;5116313;28;20268;-76
2024/01/27 03:18:21;;;;;;;;;;;7.70;99.90;;;;;;5115848;28;19957;-76
2024/01/27 03:20:46;;;;;;;;;;;7.70;99.90;;;;;;5105685;28;19916;-76
2024/01/27 03:23:12;;;;;;;;;;;7.70;99.90;;;;;;5114707;28;19908;-76
2024/01/27 03:25:37;;;;;;;;;;;7.70;99.90;;;;;;5114790;28;19935;-76
2024/01/27 03:28:03;;;;;;;;;;;7.60;99.90;;;;;;5115962;28;20278;-76
2024/01/27 03:30:28;;;;;;;;;;;7.60;99.90;;;;;;5116175;28;19904;-76
2024/01/27 03:32:54;;;;;;;;;;;7.60;99.90;;;;;;5115992;28;19907;-76
2024/01/27 03:35:19;;;;;;;;;;;7.60;99.90;;;;;;5116056;28;19908;-76
2024/01/27 03:37:45;;;;;;;;;;;7.60;99.90;;;;;;5115167;28;19990;-76
2024/01/27 03:40:11;;;;;;;;;;;7.50;99.90;;;;;;5117092;28;19914;-76
2024/01/27 03:42:36;;;;;;;;;;;7.50;99.90;;;;;;5118193;28;19904;-75
2024/01/27 03:45:03;;;;;;;;;;;7.50;99.90;;;;;;5120063;28;20371;-76
2024/01/27 03:47:28;;;;;;;;;;;7.50;99.90;;;;;;5118157;28;20002;-76
2024/01/27 03:49:54;;;;;;;;;;;7.50;99.90;;;;;;5118818;28;19946;-74
2024/01/27 03:52:19;;;;;;;;;;;7.50;99.90;;;;;;5119583;28;19929;-76
2024/01/27 03:54:45;;;;;;;;;;;7.50;99.90;;;;;;5119522;28;19953;-76
2024/01/27 03:57:10;;;;;;;;;;;7.40;99.90;;;;;;5105948;27;19941;-75
2024/01/27 03:59:36;;;;;;;;;;;7.40;99.90;;;;;;5119617;28;20424;-75
2024/01/27 04:02:01;;;;;;;;;;;7.40;99.90;;;;;;5117319;28;19938;-76
2024/01/27 04:04:27;;;;;;;;;;;7.30;99.90;;;;;;5099077;28;19980;-76
2024/01/27 04:06:53;;;;;;;;;;;7.30;99.90;;;;;;5107889;28;20006;-75
2024/01/27 04:09:18;;;;;;;;;;;7.40;99.90;;;;;;5117850;28;20365;-76
2024/01/27 04:11:44;;;;;;;;;;;7.40;99.90;;;;;;5119336;28;20533;-76
2024/01/27 04:14:09;;;;;;;;;;;7.30;99.90;;;;;;5114180;28;20356;-76
2024/01/27 04:16:35;;;;;;;;;;;7.30;99.90;;;;;;5114079;28;19910;-76
2024/01/27 04:19:00;;;;;;;;;;;7.30;99.90;;;;;;5118967;28;19915;-76
2024/01/27 04:21:26;;;;;;;;;;;7.30;99.90;;;;;;5117555;28;19914;-75
2024/01/27 04:23:51;;;;;;;;;;;7.30;99.90;;;;;;5118679;28;19998;-75
2024/01/27 04:26:17;;;;;;;;;;;7.30;99.90;;;;;;5119301;28;19914;-75
2024/01/27 04:28:42;;;;;;;;;;;7.30;99.90;;;;;;5117836;28;19908;-75
2024/01/27 04:31:08;;;;;;;;;;;7.20;99.90;;;;;;5119143;28;19908;-75
2024/01/27 04:33:33;;;;;;;;;;;7.20;99.90;;;;;;5115187;28;19955;-75
2024/01/27 04:35:59;;;;;;;;;;;7.20;99.90;;;;;;5118653;28;19948;-76
2024/01/27 04:38:25;;;;;;;;;;;7.20;99.90;;;;;;5118391;28;19910;-76
2024/01/27 04:40:50;;;;;;;;;;;7.20;99.90;;;;;;5118702;28;19922;-76
2024/01/27 04:43:16;;;;;;;;;;;7.20;99.90;;;;;;5118769;28;19904;-76
2024/01/27 04:45:42;;;;;;;;;;;7.20;99.90;;;;;;5118364;28;19911;-76
2024/01/27 04:48:08;;;;;;;;;;;7.20;99.90;;;;;;5103322;28;19908;-76
2024/01/27 04:50:34;;;;;;;;;;;7.20;99.90;;;;;;5115212;28;19903;-76
2024/01/27 04:52:59;;;;;;;;;;;7.30;99.90;;;;;;5117034;27;19934;-76
2024/01/27 04:55:25;;;;;;;;;;;7.30;99.90;;;;;;5118704;28;20272;-75
2024/01/27 04:57:50;;;;;;;;;;;7.30;99.90;;;;;;5118287;27;19926;-76
2024/01/27 05:00:16;;;;;;;;;;;7.30;99.90;;;;;;5118063;28;19911;-76
2024/01/27 05:02:42;;;;;;;;;;;7.30;99.90;;;;;;5118616;28;19903;-76
2024/01/27 05:05:08;;;;;;;;;;;7.30;99.90;;;;;;5118242;28;19907;-76
2024/01/27 05:07:33;;;;;;;;;;;7.20;99.90;;;;;;5118249;28;19991;-76
2024/01/27 05:09:59;;;;;;;;;;;7.20;99.90;;;;;;5116543;28;19904;-76
2024/01/27 05:12:24;;;;;;;;;;;7.20;99.90;;;;;;5118469;28;19907;-75
2024/01/27 05:14:50;;;;;;;;;;;7.20;99.90;;;;;;5117622;28;19908;-76
2024/01/27 05:17:16;;;;;;;;;;;7.20;99.90;;;;;;5108244;28;19903;-76
2024/01/27 05:19:41;;;;;;;;;;;7.20;99.90;;;;;;5116319;28;19903;-75
2024/01/27 05:22:07;;;;;;;;;;;7.20;99.90;;;;;;5117646;28;19908;-76
2024/01/27 05:24:33;;;;;;;;;;;7.20;99.90;;;;;;5117803;28;19907;-76
2024/01/27 05:26:59;;;;;;;;;;;7.20;99.90;;;;;;5118027;28;19914;-75
2024/01/27 05:29:25;;;;;;;;;;;7.20;99.90;;;;;;5117567;28;19903;-75
2024/01/27 05:31:51;;;;;;;;;;;7.10;99.90;;;;;;5116261;28;19907;-74
2024/01/27 05:34:17;;;;;;;;;;;7.10;99.90;;;;;;5115796;28;20375;-75
2024/01/27 05:36:42;;;;;;;;;;;7.20;99.90;;;;;;5095534;28;19939;-76
2024/01/27 05:39:08;;;;;;;;;;;7.10;99.90;;;;;;5102439;28;19943;-75
2024/01/27 05:41:33;;;;;;;;;;;7.10;99.90;;;;;;5115681;28;19919;-76
2024/01/27 05:43:59;;;;;;;;;;;7.10;99.90;;;;;;5115934;28;19908;-76
2024/01/27 05:46:25;;;;;;;;;;;7.10;99.90;;;;;;5115534;28;19939;-75
2024/01/27 05:48:53;;;;;;;;;;;7.10;99.90;;;;;;5117131;28;19950;-76
2024/01/27 05:51:23;;;;;;;;;;;7.10;99.90;;;;;;5117596;28;19915;-75
2024/01/27 05:53:48;;;;;;;;;;;7.10;99.90;;;;;;5115900;28;20004;-75
2024/01/27 05:56:14;;;;;;;;;;;7.10;99.90;;;;;;5117233;28;20360;-76
2024/01/27 05:58:40;;;;;;;;;;;7.10;99.90;;;;;;5117091;28;19911;-76
2024/01/27 06:01:05;;;;;;;;;;;7.10;99.90;;;;;;5107395;28;19908;-76
2024/01/27 06:03:31;;;;;;;;;;;7.10;99.90;;;;;;5111628;28;19914;-75
2024/01/27 06:05:57;;;;;;;;;;;7.10;99.90;;;;;;5117097;28;19949;-75
2024/01/27 06:08:22;;;;;;;;;;;7.10;99.90;;;;;;5116580;28;19911;-75
2024/01/27 06:10:48;;;;;;;;;;;7.10;99.90;;;;;;5115770;28;19915;-75
2024/01/27 06:13:14;;;;;;;;;;;7.20;99.90;;;;;;5116929;28;20034;-75
2024/01/27 06:15:39;;;;;;;;;;;7.20;99.90;;;;;;5115687;28;19952;-75
2024/01/27 06:18:05;;;;;;;;;;;7.20;99.90;;;;;;5115529;28;19951;-75
2024/01/27 06:20:31;;;;;;;;;;;7.20;99.90;;;;;;5116782;28;19926;-75
2024/01/27 06:22:57;;;;;;;;;;;7.20;99.90;;;;;;5116370;28;19907;-75
2024/01/27 06:25:24;;;;;;;;;;;7.10;99.90;;;;;;5115594;28;19911;-75
2024/01/27 06:27:49;;;;;;;;;;;7.10;99.90;;;;;;5116503;28;19970;-75
2024/01/27 06:30:15;;;;;;;;;;;7.00;99.90;;;;;;5115059;28;20383;-75
2024/01/27 06:32:41;;;;;;;;;;;7.00;99.90;;;;;;5115124;28;20462;-76
2024/01/27 06:35:07;;;;;;;;;;;7.00;99.90;;;;;;5116608;28;20327;-75
2024/01/27 06:37:33;;;;;;;;;;;7.00;99.90;;;;;;5116246;28;19956;-75
2024/01/27 06:39:58;;;;;;;;;;;7.00;99.90;;;;;;5116333;28;19980;-75
2024/01/27 06:42:24;;;;;;;;;;;7.00;99.90;;;;;;5116391;28;19907;-75
2024/01/27 06:44:49;;;;;;;;;;;7.00;99.90;;;;;;5116629;28;20444;-75
2024/01/27 06:47:15;;;;;;;;;;;6.90;99.90;;;;;;5115931;28;19907;-76
2024/01/27 06:49:41;;;;;;;;;;;6.90;99.90;;;;;;5116258;28;19908;-75
2024/01/27 06:52:06;;;;;;;;;;;6.80;99.90;;;;;;5114579;28;19926;-75
2024/01/27 06:54:32;;;;;;;;;;;6.80;99.90;;;;;;5116216;28;19908;-75
2024/01/27 06:56:59;;;;;;;;;;;6.80;99.90;;;;;;5116122;28;20422;-75
2024/01/27 06:59:25;;;;;;;;;;;6.80;99.90;;;;;;5115094;28;19907;-75
2024/01/27 07:01:51;;;;;;;;;;;6.70;99.90;;;;;;5115927;28;19956;-75
2024/01/27 07:04:17;;;;;;;;;;;6.70;99.90;;;;;;5114984;28;19957;-75
2024/01/27 07:06:42;;;;;;;;;;;6.70;99.90;;;;;;5114413;28;19947;-75
2024/01/27 07:09:09;;;;;;;;;;;6.60;99.90;;;;;;5116102;28;19914;-75
2024/01/27 07:11:35;;;;;;;;;;;6.70;99.90;;;;;;5116108;28;19946;-76
2024/01/27 07:14:00;;;;;;;;;;;6.70;99.90;;;;;;5117674;28;19911;-76
2024/01/27 07:16:26;;;;;;;;;;;6.80;99.90;;;;;;5111659;28;20294;-76
2024/01/27 07:18:51;;;;;;;;;;;6.70;99.90;;;;;;5119267;28;19919;-74
2024/01/27 07:21:17;;;;;;;;;;;6.70;99.90;;;;;;5118650;28;20294;-76
2024/01/27 07:23:43;;;;;;;;;;;6.70;99.90;;;;;;5114660;28;20394;-77
2024/01/27 07:26:11;;;;;;;;;;;6.70;99.90;;;;;;5105077;28;19908;-77
2024/01/27 07:28:37;;;;;;;;;;;6.70;99.90;;;;;;5097254;28;19912;-76
2024/01/27 07:31:03;;;;;;;;;;;6.80;99.90;;;;;;5108996;27;19907;-77
2024/01/27 07:33:28;;;;;;;;;;;6.80;99.90;;;;;;5101768;28;19915;-77
2024/01/27 07:35:54;;;;;;;;;;;6.70;99.90;;;;;;5102496;28;19911;-77
2024/01/27 07:38:19;;;;;;;;;;;6.70;99.90;;;;;;5096412;28;19950;-76
2024/01/27 07:40:45;;;;;;;;;;;6.60;99.90;;;;;;5096511;28;19951;-77
2024/01/27 07:43:10;;;;;;;;;;;6.70;99.90;;;;;;5098360;28;20767;-76
2024/01/27 07:45:36;;;;;;;;;;;6.70;99.90;;;;;;5095225;28;19908;-77
2024/01/27 07:48:02;;;;;;;;;;;6.70;99.90;;;;;;5101532;28;19930;-77
2024/01/27 07:50:27;;;;;;;;;;;6.70;99.90;;;;;;5108860;28;19955;-77
2024/01/27 07:52:53;;;;;;;;;;;6.70;99.90;;;;;;5109879;28;20391;-77
2024/01/27 07:55:18;;;;;;;;;;;6.70;99.90;;;;;;5108400;28;19916;-77
2024/01/27 07:57:44;;;;;;;;;;;6.70;99.90;;;;;;5099387;28;19920;-77
2024/01/27 08:00:10;;;;;;;;;;;6.60;99.90;;;;;;5109082;28;19908;-77
2024/01/27 08:02:35;;;;;;;;;;;6.70;99.90;;;;;;5108925;28;20017;-77
2024/01/27 08:05:03;;;;;;;;;;;6.60;99.90;;;;;;5106897;28;19914;-77
2024/01/27 08:07:29;;;;;;;;;;;6.70;99.90;;;;;;5108484;28;19907;-76
2024/01/27 08:09:56;;;;;;;;;;;6.70;99.90;;;;;;5113065;28;19915;-77
2024/01/27 08:12:22;;;;;;;;;;;6.70;99.90;;;;;;5101841;28;19908;-76
2024/01/27 08:14:47;;;;;;;;;;;6.70;99.90;;;;;;5109763;28;19923;-77
2024/01/27 08:17:13;;;;;;;;;;;6.80;99.90;;;;;;5107325;28;20545;-77
2024/01/27 08:19:39;;;;;;;;;;;6.90;99.90;;;;;;5107298;28;19958;-76
2024/01/27 08:22:04;;;;;;;;;;;6.80;99.90;;;;;;5109274;28;19912;-77
2024/01/27 08:24:30;;;;;;;;;;;6.90;99.90;;;;;;5109254;28;19908;-77
2024/01/27 08:26:55;;;;;;;;;;;6.90;99.90;;;;;;5102056;28;19912;-78
2024/01/27 08:29:21;;;;;;;;;;;6.90;99.90;;;;;;5107285;27;19911;-78
2024/01/27 08:31:46;;;;;;;;;;;6.90;99.90;;;;;;5109972;28;19907;-78
2024/01/27 08:34:12;;;;;;;;;;;6.90;99.90;;;;;;5107233;28;19904;-79
2024/01/27 08:36:38;;;;;;;;;;;6.90;99.90;;;;;;5108562;28;19907;-78
2024/01/27 08:39:04;;;;;;;;;;;6.90;99.90;;;;;;5108060;27;20013;-78
2024/01/27 08:41:29;;;;;;;;;;;6.90;99.90;;;;;;5108885;28;19911;-78
2024/01/27 08:43:55;;;;;;;;;;;6.90;99.90;;;;;;5106417;28;19911;-77
2024/01/27 08:46:22;;;;;;;;;;;6.90;99.90;;;;;;5110299;28;19908;-77
2024/01/27 08:48:47;;;;;;;;;;;6.90;99.90;;;;;;5106848;28;19998;-78
2024/01/27 08:51:13;;;;;;;;;;;6.80;99.90;;;;;;5103366;28;20011;-78
2024/01/27 08:53:38;;;;;;;;;;;6.80;99.90;;;;;;5107455;28;20279;-77
2024/01/27 08:56:04;;;;;;;;;;;6.80;99.90;;;;;;5102452;28;19916;-77
2024/01/27 08:58:30;;;;;;;;;;;6.80;99.90;;;;;;5108341;28;19922;-77
2024/01/27 09:00:56;;;;;;;;;;;6.80;99.90;;;;;;5109398;28;19919;-77
2024/01/27 09:03:22;;;;;;;;;;;6.80;99.90;;;;;;5101517;28;19915;-77
2024/01/27 09:05:47;;;;;;;;;;;6.80;99.90;;;;;;5102468;28;19908;-77
2024/01/27 09:08:13;;;;;;;;;;;6.90;99.90;;;;;;5105011;28;20403;-77
2024/01/27 09:10:38;;;;;;;;;;;7.00;99.90;;;;;;5110908;28;19915;-77
2024/01/27 09:13:04;;;;;;;;;;;6.90;99.90;;;;;;5113413;28;19908;-78
2024/01/27 09:15:30;;;;;;;;;;;6.90;99.90;;;;;;5111403;28;19949;-77
2024/01/27 09:17:56;;;;;;;;;;;7.00;99.90;;;;;;5114930;28;19908;-77
2024/01/27 09:20:21;;;;;;;;;;;7.10;99.90;;;;;;5112237;28;20456;-78
2024/01/27 09:22:47;;;;;;;;;;;7.20;99.90;;;;;;5111148;28;19915;-78
2024/01/27 09:25:13;;;;;;;;;;;7.30;99.90;;;;;;5112022;28;19992;-78
2024/01/27 09:27:39;;;;;;;;;;;7.30;99.90;;;;;;5114442;28;19904;-79
2024/01/27 09:30:06;;;;;;;;;;;7.10;99.90;;;;;;5111519;28;19918;-77
2024/01/27 09:32:32;;;;;;;;;;;7.20;99.90;;;;;;5113190;28;19966;-78
2024/01/27 09:34:58;;;;;;;;;;;7.30;99.90;;;;;;5111573;28;19907;-78
2024/01/27 09:37:23;;;;;;;;;;;7.30;99.90;;;;;;5111017;28;19904;-77
2024/01/27 09:39:49;;;;;;;;;;;7.40;99.90;;;;;;5110987;28;19907;-78
2024/01/27 09:42:15;;;;;;;;;;;7.50;99.90;;;;;;5114898;28;19926;-78
2024/01/27 09:44:43;;;;;;;;;;;7.50;99.90;;;;;;5110886;28;19904;-77
2024/01/27 09:47:09;;;;;;;;;;;7.60;99.90;;;;;;5116026;28;19903;-77
2024/01/27 09:49:35;;;;;;;;;;;7.70;99.90;;;;;;5109854;28;19904;-77
2024/01/27 09:52:01;;;;;;;;;;;7.60;99.90;;;;;;5109590;28;20003;-78
2024/01/27 09:54:26;;;;;;;;;;;7.60;99.90;;;;;;5113125;28;19980;-79
2024/01/27 09:56:52;;;;;;;;;;;7.70;99.90;;;;;;5113902;28;19923;-77
2024/01/27 09:59:27;;;;;;;;;;;7.70;99.90;;;;;;5111663;27;19912;-77
2024/01/27 10:01:53;;;;;;;;;;;7.80;99.90;;;;;;5108241;28;19916;-77
2024/01/27 10:04:20;;;;;;;;;;;7.80;99.90;;;;;;5109080;28;20367;-76
2024/01/27 10:06:47;;;;;;;;;;;7.90;99.90;;;;;;5111943;28;19966;-77
2024/01/27 10:09:13;;;;;;;;;;;7.90;99.90;;;;;;5109804;28;19912;-76
2024/01/27 10:11:42;;;;;;;;;;;7.90;99.90;;;;;;5107508;28;20426;-77
2024/01/27 10:14:08;;;;;;;;;;;7.80;99.90;;;;;;5112206;28;20367;-77
2024/01/27 10:16:43;;;;;;;;;;;7.80;99.90;;;;;;5110961;28;19912;-77
2024/01/27 10:19:14;;;;;;;;;;;7.90;99.90;;;;;;5110007;28;20389;-77
2024/01/27 10:21:39;;;;;;;;;;;8.10;99.90;;;;;;5108244;28;19927;-77
2024/01/27 10:24:06;;;;;;;;;;;8.10;99.90;;;;;;5110766;28;20462;-78
2024/01/27 10:26:32;;;;;;;;;;;8.10;99.90;;;;;;5112426;28;19915;-77
2024/01/27 10:28:58;;;;;;;;;;;8.00;99.90;;;;;;5109640;28;20269;-77
2024/01/27 10:31:33;;;;;;;;;;;8.20;99.90;;;;;;5111053;28;20027;-77
2024/01/27 10:34:01;;;;;;;;;;;8.30;99.90;;;;;;5110726;28;19912;-78
2024/01/27 10:36:37;;;;;;;;;;;8.50;99.90;;;;;;5111782;28;19920;-77
2024/01/27 10:39:13;;;;;;;;;;;8.50;99.90;;;;;;5109774;28;19938;-78
2024/01/27 10:41:39;;;;;;;;;;;8.60;99.90;;;;;;5110178;28;19957;-77
2024/01/27 10:44:05;;;;;;;;;;;8.50;99.90;;;;;;5111776;28;19921;-78
2024/01/27 10:46:31;;;;;;;;;;;8.50;99.90;;;;;;5111948;28;19916;-77
2024/01/27 10:48:57;;;;;;;;;;;8.50;99.90;;;;;;5111078;28;20363;-77
2024/01/27 10:51:25;;;;;;;;;;;8.60;99.90;;;;;;5111725;28;19908;-78
2024/01/27 10:53:52;;;;;;;;;;;8.50;99.90;;;;;;5111559;28;19930;-77
2024/01/27 10:56:19;;;;;;;;;;;8.30;99.90;;;;;;5109518;28;19911;-77
2024/01/27 10:58:46;;;;;;;;;;;8.50;99.90;;;;;;5109128;28;20372;-77
2024/01/27 11:01:13;;;;;;;;;;;8.50;99.90;;;;;;5110263;28;19912;-77
2024/01/27 11:03:41;;;;;;;;;;;8.60;99.90;;;;;;5111590;28;19930;-77
2024/01/27 11:06:07;;;;;;;;;;;8.60;99.90;;;;;;5111469;28;19908;-77
2024/01/27 11:08:37;;;;;;;;;;;8.70;99.90;;;;;;5090188;28;19914;-77
2024/01/27 11:11:03;;;;;;;;;;;8.80;99.90;;;;;;5071171;28;19917;-77
2024/01/27 11:13:29;;;;;;;;;;;8.80;99.90;;;;;;5071622;28;19919;-77
2024/01/27 11:15:55;;;;;;;;;;;8.80;99.90;;;;;;5072145;28;19916;-77
2024/01/27 11:18:21;;;;;;;;;;;8.70;99.90;;;;;;5071211;28;19916;-77
2024/01/27 11:20:46;;;;;;;;;;;8.70;99.90;;;;;;5070217;28;19921;-77
2024/01/27 11:23:13;;;;;;;;;;;8.80;99.90;;;;;;5070268;28;20408;-77
2024/01/27 11:25:39;;;;;;;;;;;8.70;99.90;;;;;;5071369;28;20038;-77
2024/01/27 11:28:13;;;;;;;;;;;8.70;99.90;;;;;;5068123;28;19958;-77
2024/01/27 11:30:39;;;;;;;;;;;8.70;99.90;;;;;;5069241;28;20468;-77
2024/01/27 11:33:05;;;;;;;;;;;8.90;99.90;;;;;;5068610;28;20058;-77
2024/01/27 11:35:31;;;;;;;;;;;8.80;99.90;;;;;;5072178;28;19947;-77
2024/01/27 11:37:57;;;;;;;;;;;8.90;99.90;;;;;;5064766;28;19951;-78
2024/01/27 11:40:22;;;;;;;;;;;9.00;99.90;;;;;;5070314;28;19916;-79
2024/01/27 11:42:57;;;;;;;;;;;9.00;99.90;;;;;;5066695;28;19912;-78
2024/01/27 11:45:23;;;;;;;;;;;9.20;99.90;;;;;;5070558;28;19916;-79
2024/01/27 11:47:49;;;;;;;;;;;9.30;99.90;;;;;;5072070;28;20011;-78
2024/01/27 11:50:16;;;;;;;;;;;9.30;99.90;;;;;;5070170;28;19913;-78
2024/01/27 11:52:42;;;;;;;;;;;9.40;99.90;;;;;;5070383;28;19913;-77
2024/01/27 11:55:08;;;;;;;;;;;9.40;99.90;;;;;;5071148;28;20710;-78
2024/01/27 11:57:34;;;;;;;;;;;9.60;99.90;;;;;;5070279;28;19929;-78
2024/01/27 11:59:59;;;;;;;;;;;9.70;99.90;;;;;;5071524;28;19919;-78
2024/01/27 12:02:25;;;;;;;;;;;9.70;99.90;;;;;;5069568;28;19920;-80
2024/01/27 12:04:50;;;;;;;;;;;9.60;99.90;;;;;;5071842;28;19909;-80
2024/01/27 12:07:18;;;;;;;;;;;9.60;99.90;;;;;;5070517;28;19917;-80
2024/01/27 12:09:44;;;;;;;;;;;9.70;99.90;;;;;;5070116;28;19943;-81
2024/01/27 12:12:12;;;;;;;;;;;9.70;99.90;;;;;;5071265;28;19916;-79
2024/01/27 12:14:38;;;;;;;;;;;9.70;99.90;;;;;;5070668;28;20459;-80
2024/01/27 12:17:04;;;;;;;;;;;9.70;99.90;;;;;;5070581;28;19912;-79
2024/01/27 12:19:30;;;;;;;;;;;9.80;99.90;;;;;;5070703;28;19913;-79
2024/01/27 12:21:57;;;;;;;;;;;9.80;99.90;;;;;;5068851;28;20371;-79
2024/01/27 12:24:23;;;;;;;;;;;9.80;99.90;;;;;;5070151;28;19912;-78
2024/01/27 12:26:49;;;;;;;;;;;9.90;99.90;;;;;;5070520;28;19913;-78
2024/01/27 12:29:14;;;;;;;;;;;9.90;99.90;;;;;;5066551;28;19912;-78
2024/01/27 12:31:40;;;;;;;;;;;10.00;99.90;;;;;;5070193;28;19932;-78
2024/01/27 12:34:07;;;;;;;;;;;9.90;99.90;;;;;;5071136;28;19939;-80
2024/01/27 12:36:32;;;;;;;;;;;9.80;99.90;;;;;;5071054;28;19908;-77
2024/01/27 12:38:59;;;;;;;;;;;9.90;99.90;;;;;;5069703;28;19924;-78
2024/01/27 12:41:26;;;;;;;;;;;9.90;99.90;;;;;;5070376;28;19913;-78
2024/01/27 12:43:52;;;;;;;;;;;10.00;99.90;;;;;;5070756;28;19935;-77
2024/01/27 12:46:17;;;;;;;;;;;10.00;99.90;;;;;;5069952;28;19917;-78
2024/01/27 12:48:44;;;;;;;;;;;10.10;99.90;;;;;;5065491;28;19916;-78
2024/01/27 12:51:10;;;;;;;;;;;10.20;99.90;;;;;;5068362;28;20450;-78
2024/01/27 12:53:38;;;;;;;;;;;10.20;99.90;;;;;;5068193;28;19991;-77
2024/01/27 12:56:04;;;;;;;;;;;10.40;99.90;;;;;;5067630;28;19912;-78
2024/01/27 12:58:29;;;;;;;;;;;10.50;99.90;;;;;;5067887;28;19974;-79
2024/01/27 13:00:55;;;;;;;;;;;10.50;99.90;;;;;;5068902;28;19916;-78
2024/01/27 13:03:20;;;;;;;;;;;10.40;99.90;;;;;;5067084;28;20358;-78
2024/01/27 13:05:46;;;;;;;;;;;10.40;99.90;;;;;;5070801;28;19923;-78
2024/01/27 13:08:12;;;;;;;;;;;10.50;99.90;;;;;;5067952;28;19912;-77
2024/01/27 13:10:37;;;;;;;;;;;10.50;99.90;;;;;;5069505;28;19912;-79
2024/01/27 13:13:03;;;;;;;;;;;10.50;99.90;;;;;;5065448;28;19916;-79
2024/01/27 13:15:29;;;;;;;;;;;10.60;99.90;;;;;;5069573;28;20448;-78
2024/01/27 13:17:54;;;;;;;;;;;10.70;99.90;;;;;;5069899;28;20435;-79
2024/01/27 13:20:20;;;;;;;;;;;10.80;99.90;;;;;;5073421;28;20405;-80
2024/01/27 13:22:45;;;;;;;;;;;10.90;99.90;;;;;;5072075;28;20376;-79
2024/01/27 13:25:11;;;;;;;;;;;11.10;99.90;;;;;;5072843;28;20397;-79
2024/01/27 13:27:36;;;;;;;;;;;11.20;99.90;;;;;;5071501;28;19970;-79
2024/01/27 13:30:02;;;;;;;;;;;11.30;99.90;;;;;;5072911;28;19981;-79
2024/01/27 13:32:28;;;;;;;;;;;11.30;99.90;;;;;;5073978;28;19909;-80
2024/01/27 13:34:54;;;;;;;;;;;11.00;99.90;;;;;;5074139;28;19931;-79
2024/01/27 13:37:20;;;;;;;;;;;11.00;99.90;;;;;;5072375;28;20297;-79
2024/01/27 13:39:45;;;;;;;;;;;11.10;99.90;;;;;;5074186;28;20004;-80
2024/01/27 13:42:11;;;;;;;;;;;11.10;99.90;;;;;;5074819;28;19948;-79
2024/01/27 13:44:36;;;;;;;;;;;11.10;99.90;;;;;;5073302;28;19919;-78
2024/01/27 13:47:04;;;;;;;;;;;11.20;99.90;;;;;;5073684;28;19908;-78
2024/01/27 13:49:30;;;;;;;;;;;11.20;99.90;;;;;;5072273;28;19967;-80
2024/01/27 13:51:56;;;;;;;;;;;11.00;99.90;;;;;;5074759;28;20299;-80
2024/01/27 13:54:21;;;;;;;;;;;10.90;99.90;;;;;;5073520;28;20008;-79
2024/01/27 13:56:47;;;;;;;;;;;11.00;99.90;;;;;;5073904;28;20003;-79
2024/01/27 13:59:12;;;;;;;;;;;11.10;99.90;;;;;;5073796;28;20019;-79
2024/01/27 14:01:38;;;;;;;;;;;11.20;99.90;;;;;;5074781;28;20003;-81
2024/01/27 14:04:03;;;;;;;;;;;11.10;99.90;;;;;;5074781;28;19915;-80
2024/01/27 14:06:29;;;;;;;;;;;11.30;99.90;;;;;;5073034;28;19909;-80
2024/01/27 14:08:55;;;;;;;;;;;11.30;99.90;;;;;;5073677;28;19915;-80
2024/01/27 14:11:21;;;;;;;;;;;11.30;99.90;;;;;;5073385;28;19950;-80
2024/01/27 14:13:47;;;;;;;;;;;11.10;99.90;;;;;;5071709;28;19927;-80
2024/01/27 14:16:12;;;;;;;;;;;11.20;99.90;;;;;;5073253;28;19909;-79
2024/01/27 14:18:38;;;;;;;;;;;11.30;99.90;;;;;;5074183;28;19913;-80
2024/01/27 14:21:04;;;;;;;;;;;11.40;99.90;;;;;;5073367;28;19909;-79